sensor_id;sensor_type;location;lat;lon;timestamp;P1;durP1;ratioP1;P2;durP2;ratioP2
17790;SDS011;9019;48.132;-1.210;2022-12-29T00:01:28;16.03;;;2.90;;
17790;SDS011;9019;48.132;-1.210;2022-12-29T00:03:55;22.37;;;3.10;;
17790;SDS011;9019;48.132;-1.210;2022-12-29T00:06:24;18.13;;;2.97;;
17790;SDS011;9019;48.132;-1.210;2022-12-29T00:08:51;16.33;;;2.73;;
17790;SDS011;9019;48.132;-1.210;2022-12-29T00:11:19;21.20;;;3.53;;
17790;SDS011;9019;48.132;-1.210;2022-12-29T00:13:47;20.50;;;3.13;;
17790;SDS011;9019;48.132;-1.210;2022-12-29T00:16:31;15.03;;;2.70;;
17790;SDS011;9019;48.132;-1.210;2022-12-29T00:18:59;19.87;;;2.80;;
17790;SDS011;9019;48.132;-1.210;2022-12-29T00:21:28;12.93;;;2.40;;
17790;SDS011;9019;48.132;-1.210;2022-12-29T00:24:14;19.00;;;2.90;;
17790;SDS011;9019;48.132;-1.210;2022-12-29T00:27:07;20.93;;;3.03;;
17790;SDS011;9019;48.132;-1.210;2022-12-29T00:29:54;18.93;;;3.20;;
17790;SDS011;9019;48.132;-1.210;2022-12-29T00:32:38;14.87;;;2.80;;
17790;SDS011;9019;48.132;-1.210;2022-12-29T00:35:23;14.73;;;2.30;;
17790;SDS011;9019;48.132;-1.210;2022-12-29T00:37:53;17.13;;;2.67;;
17790;SDS011;9019;48.132;-1.210;2022-12-29T00:40:40;18.97;;;2.80;;
17790;SDS011;9019;48.132;-1.210;2022-12-29T00:43:24;19.07;;;2.80;;
17790;SDS011;9019;48.132;-1.210;2022-12-29T00:46:09;15.63;;;2.97;;
17790;SDS011;9019;48.132;-1.210;2022-12-29T00:48:36;11.97;;;2.50;;
17790;SDS011;9019;48.132;-1.210;2022-12-29T00:51:21;12.53;;;2.17;;
17790;SDS011;9019;48.132;-1.210;2022-12-29T00:53:50;13.67;;;2.57;;
17790;SDS011;9019;48.132;-1.210;2022-12-29T00:56:17;18.90;;;2.47;;
17790;SDS011;9019;48.132;-1.210;2022-12-29T00:58:44;20.67;;;2.93;;
17790;SDS011;9019;48.132;-1.210;2022-12-29T01:01:11;13.17;;;2.93;;
17790;SDS011;9019;48.132;-1.210;2022-12-29T01:03:38;15.27;;;2.67;;
17790;SDS011;9019;48.132;-1.210;2022-12-29T01:06:06;13.97;;;2.47;;
17790;SDS011;9019;48.132;-1.210;2022-12-29T01:08:34;18.87;;;3.10;;
17790;SDS011;9019;48.132;-1.210;2022-12-29T01:11:04;17.27;;;3.10;;
17790;SDS011;9019;48.132;-1.210;2022-12-29T01:13:30;25.83;;;2.83;;
17790;SDS011;9019;48.132;-1.210;2022-12-29T01:15:58;18.53;;;2.80;;
17790;SDS011;9019;48.132;-1.210;2022-12-29T01:18:25;14.77;;;2.10;;
17790;SDS011;9019;48.132;-1.210;2022-12-29T01:20:57;14.97;;;2.57;;
17790;SDS011;9019;48.132;-1.210;2022-12-29T01:23:25;15.03;;;2.63;;
17790;SDS011;9019;48.132;-1.210;2022-12-29T01:25:52;15.23;;;2.50;;
17790;SDS011;9019;48.132;-1.210;2022-12-29T01:28:21;14.80;;;2.43;;
17790;SDS011;9019;48.132;-1.210;2022-12-29T01:30:48;15.17;;;2.20;;
17790;SDS011;9019;48.132;-1.210;2022-12-29T01:33:15;19.20;;;2.93;;
17790;SDS011;9019;48.132;-1.210;2022-12-29T01:35:42;17.77;;;2.33;;
17790;SDS011;9019;48.132;-1.210;2022-12-29T01:38:10;22.30;;;3.10;;
17790;SDS011;9019;48.132;-1.210;2022-12-29T01:40:42;15.43;;;2.80;;
17790;SDS011;9019;48.132;-1.210;2022-12-29T01:43:10;15.57;;;2.93;;
17790;SDS011;9019;48.132;-1.210;2022-12-29T01:45:39;16.63;;;2.70;;
17790;SDS011;9019;48.132;-1.210;2022-12-29T01:48:08;19.80;;;2.57;;
17790;SDS011;9019;48.132;-1.210;2022-12-29T01:50:36;14.43;;;2.33;;
17790;SDS011;9019;48.132;-1.210;2022-12-29T01:53:06;22.33;;;3.20;;
17790;SDS011;9019;48.132;-1.210;2022-12-29T01:55:36;24.20;;;2.97;;
17790;SDS011;9019;48.132;-1.210;2022-12-29T01:58:05;19.80;;;2.90;;
17790;SDS011;9019;48.132;-1.210;2022-12-29T02:00:33;15.77;;;2.63;;
17790;SDS011;9019;48.132;-1.210;2022-12-29T02:03:01;15.00;;;2.80;;
17790;SDS011;9019;48.132;-1.210;2022-12-29T02:05:30;17.97;;;2.87;;
17790;SDS011;9019;48.132;-1.210;2022-12-29T02:07:59;19.23;;;2.90;;
17790;SDS011;9019;48.132;-1.210;2022-12-29T02:10:27;16.27;;;2.60;;
17790;SDS011;9019;48.132;-1.210;2022-12-29T02:12:55;14.37;;;2.63;;
17790;SDS011;9019;48.132;-1.210;2022-12-29T02:15:24;13.13;;;1.80;;
17790;SDS011;9019;48.132;-1.210;2022-12-29T02:17:58;17.60;;;2.50;;
17790;SDS011;9019;48.132;-1.210;2022-12-29T02:23:24;19.00;;;2.80;;
17790;SDS011;9019;48.132;-1.210;2022-12-29T02:26:04;12.67;;;2.43;;
17790;SDS011;9019;48.132;-1.210;2022-12-29T02:28:52;13.30;;;2.37;;
17790;SDS011;9019;48.132;-1.210;2022-12-29T02:31:21;13.73;;;2.47;;
17790;SDS011;9019;48.132;-1.210;2022-12-29T02:33:54;16.90;;;2.17;;
17790;SDS011;9019;48.132;-1.210;2022-12-29T02:36:27;14.33;;;2.73;;
17790;SDS011;9019;48.132;-1.210;2022-12-29T02:38:59;16.13;;;2.73;;
17790;SDS011;9019;48.132;-1.210;2022-12-29T02:41:30;17.50;;;2.70;;
17790;SDS011;9019;48.132;-1.210;2022-12-29T02:43:59;14.07;;;2.23;;
17790;SDS011;9019;48.132;-1.210;2022-12-29T02:46:32;20.73;;;2.97;;
17790;SDS011;9019;48.132;-1.210;2022-12-29T02:49:03;20.00;;;2.93;;
17790;SDS011;9019;48.132;-1.210;2022-12-29T02:51:34;14.23;;;2.77;;
17790;SDS011;9019;48.132;-1.210;2022-12-29T02:54:03;15.57;;;2.57;;
17790;SDS011;9019;48.132;-1.210;2022-12-29T02:56:47;15.90;;;2.07;;
17790;SDS011;9019;48.132;-1.210;2022-12-29T02:59:15;13.93;;;2.33;;
17790;SDS011;9019;48.132;-1.210;2022-12-29T03:01:50;15.27;;;2.57;;
17790;SDS011;9019;48.132;-1.210;2022-12-29T03:04:35;14.30;;;2.50;;
17790;SDS011;9019;48.132;-1.210;2022-12-29T03:07:09;16.77;;;2.67;;
17790;SDS011;9019;48.132;-1.210;2022-12-29T03:09:40;17.70;;;2.33;;
17790;SDS011;9019;48.132;-1.210;2022-12-29T03:12:12;20.53;;;3.17;;
17790;SDS011;9019;48.132;-1.210;2022-12-29T03:14:44;12.80;;;2.17;;
17790;SDS011;9019;48.132;-1.210;2022-12-29T03:17:35;19.23;;;3.30;;
17790;SDS011;9019;48.132;-1.210;2022-12-29T03:20:06;16.83;;;2.60;;
17790;SDS011;9019;48.132;-1.210;2022-12-29T03:22:35;18.10;;;2.70;;
17790;SDS011;9019;48.132;-1.210;2022-12-29T03:25:04;12.50;;;2.23;;
17790;SDS011;9019;48.132;-1.210;2022-12-29T03:27:34;14.60;;;2.30;;
17790;SDS011;9019;48.132;-1.210;2022-12-29T03:30:03;18.20;;;2.70;;
17790;SDS011;9019;48.132;-1.210;2022-12-29T03:32:31;16.93;;;2.30;;
17790;SDS011;9019;48.132;-1.210;2022-12-29T03:35:00;15.47;;;2.43;;
17790;SDS011;9019;48.132;-1.210;2022-12-29T03:37:29;11.90;;;2.00;;
17790;SDS011;9019;48.132;-1.210;2022-12-29T03:39:57;14.07;;;1.97;;
17790;SDS011;9019;48.132;-1.210;2022-12-29T03:42:26;18.00;;;2.97;;
17790;SDS011;9019;48.132;-1.210;2022-12-29T03:44:54;15.10;;;2.30;;
17790;SDS011;9019;48.132;-1.210;2022-12-29T03:47:23;15.27;;;2.90;;
17790;SDS011;9019;48.132;-1.210;2022-12-29T03:49:51;16.63;;;2.57;;
17790;SDS011;9019;48.132;-1.210;2022-12-29T03:52:19;14.87;;;2.13;;
17790;SDS011;9019;48.132;-1.210;2022-12-29T03:54:46;9.83;;;2.07;;
17790;SDS011;9019;48.132;-1.210;2022-12-29T03:57:14;12.33;;;2.30;;
17790;SDS011;9019;48.132;-1.210;2022-12-29T03:59:41;12.77;;;2.23;;
17790;SDS011;9019;48.132;-1.210;2022-12-29T04:02:08;13.57;;;2.60;;
17790;SDS011;9019;48.132;-1.210;2022-12-29T04:04:35;16.80;;;2.63;;
17790;SDS011;9019;48.132;-1.210;2022-12-29T04:07:02;13.00;;;2.20;;
17790;SDS011;9019;48.132;-1.210;2022-12-29T04:09:31;18.47;;;2.70;;
17790;SDS011;9019;48.132;-1.210;2022-12-29T04:11:58;18.40;;;2.30;;
17790;SDS011;9019;48.132;-1.210;2022-12-29T04:14:25;15.33;;;2.40;;
17790;SDS011;9019;48.132;-1.210;2022-12-29T04:16:52;23.50;;;3.00;;
17790;SDS011;9019;48.132;-1.210;2022-12-29T04:19:20;19.87;;;2.67;;
17790;SDS011;9019;48.132;-1.210;2022-12-29T04:21:47;18.67;;;2.80;;
17790;SDS011;9019;48.132;-1.210;2022-12-29T04:24:13;14.03;;;2.40;;
17790;SDS011;9019;48.132;-1.210;2022-12-29T04:26:42;18.50;;;2.30;;
17790;SDS011;9019;48.132;-1.210;2022-12-29T04:29:09;23.07;;;3.00;;
17790;SDS011;9019;48.132;-1.210;2022-12-29T04:31:36;19.77;;;2.60;;
17790;SDS011;9019;48.132;-1.210;2022-12-29T04:34:03;19.80;;;2.67;;
17790;SDS011;9019;48.132;-1.210;2022-12-29T04:36:30;14.47;;;2.53;;
17790;SDS011;9019;48.132;-1.210;2022-12-29T04:38:58;19.70;;;3.37;;
17790;SDS011;9019;48.132;-1.210;2022-12-29T04:41:25;13.60;;;3.27;;
17790;SDS011;9019;48.132;-1.210;2022-12-29T04:43:54;18.87;;;3.00;;
17790;SDS011;9019;48.132;-1.210;2022-12-29T04:46:21;11.67;;;2.10;;
17790;SDS011;9019;48.132;-1.210;2022-12-29T04:48:48;13.90;;;2.40;;
17790;SDS011;9019;48.132;-1.210;2022-12-29T04:51:15;17.13;;;3.27;;
17790;SDS011;9019;48.132;-1.210;2022-12-29T04:53:43;15.17;;;2.27;;
17790;SDS011;9019;48.132;-1.210;2022-12-29T04:56:10;13.70;;;2.17;;
17790;SDS011;9019;48.132;-1.210;2022-12-29T04:58:37;14.57;;;2.50;;
17790;SDS011;9019;48.132;-1.210;2022-12-29T05:01:05;13.33;;;2.23;;
17790;SDS011;9019;48.132;-1.210;2022-12-29T05:03:33;15.47;;;2.77;;
17790;SDS011;9019;48.132;-1.210;2022-12-29T05:06:00;20.30;;;2.40;;
17790;SDS011;9019;48.132;-1.210;2022-12-29T05:08:28;16.03;;;2.70;;
17790;SDS011;9019;48.132;-1.210;2022-12-29T05:10:55;15.73;;;2.30;;
17790;SDS011;9019;48.132;-1.210;2022-12-29T05:13:22;14.43;;;2.20;;
17790;SDS011;9019;48.132;-1.210;2022-12-29T05:15:49;15.40;;;2.70;;
17790;SDS011;9019;48.132;-1.210;2022-12-29T05:18:18;14.47;;;2.17;;
17790;SDS011;9019;48.132;-1.210;2022-12-29T05:20:46;16.47;;;2.27;;
17790;SDS011;9019;48.132;-1.210;2022-12-29T05:23:14;14.90;;;2.43;;
17790;SDS011;9019;48.132;-1.210;2022-12-29T05:25:42;21.17;;;2.77;;
17790;SDS011;9019;48.132;-1.210;2022-12-29T05:28:10;15.67;;;2.60;;
17790;SDS011;9019;48.132;-1.210;2022-12-29T05:30:37;15.07;;;2.90;;
17790;SDS011;9019;48.132;-1.210;2022-12-29T05:33:04;19.97;;;2.87;;
17790;SDS011;9019;48.132;-1.210;2022-12-29T05:35:33;17.67;;;2.40;;
17790;SDS011;9019;48.132;-1.210;2022-12-29T05:38:00;17.20;;;2.60;;
17790;SDS011;9019;48.132;-1.210;2022-12-29T05:40:28;16.23;;;2.50;;
17790;SDS011;9019;48.132;-1.210;2022-12-29T05:42:55;23.37;;;2.87;;
17790;SDS011;9019;48.132;-1.210;2022-12-29T05:45:22;18.53;;;3.33;;
17790;SDS011;9019;48.132;-1.210;2022-12-29T05:47:49;18.17;;;3.00;;
17790;SDS011;9019;48.132;-1.210;2022-12-29T05:50:16;16.07;;;2.50;;
17790;SDS011;9019;48.132;-1.210;2022-12-29T05:52:45;16.47;;;2.83;;
17790;SDS011;9019;48.132;-1.210;2022-12-29T05:55:12;19.50;;;2.40;;
17790;SDS011;9019;48.132;-1.210;2022-12-29T05:57:39;22.40;;;3.40;;
17790;SDS011;9019;48.132;-1.210;2022-12-29T06:00:07;18.83;;;3.30;;
17790;SDS011;9019;48.132;-1.210;2022-12-29T06:02:35;22.60;;;3.17;;
17790;SDS011;9019;48.132;-1.210;2022-12-29T06:05:02;18.90;;;2.60;;
17790;SDS011;9019;48.132;-1.210;2022-12-29T06:07:30;19.30;;;2.73;;
17790;SDS011;9019;48.132;-1.210;2022-12-29T06:09:58;17.73;;;2.87;;
17790;SDS011;9019;48.132;-1.210;2022-12-29T06:12:25;18.57;;;3.17;;
17790;SDS011;9019;48.132;-1.210;2022-12-29T06:14:53;18.10;;;2.90;;
17790;SDS011;9019;48.132;-1.210;2022-12-29T06:17:20;20.67;;;2.90;;
17790;SDS011;9019;48.132;-1.210;2022-12-29T06:19:47;14.20;;;2.37;;
17790;SDS011;9019;48.132;-1.210;2022-12-29T06:22:14;16.70;;;2.77;;
17790;SDS011;9019;48.132;-1.210;2022-12-29T06:24:41;19.67;;;2.77;;
17790;SDS011;9019;48.132;-1.210;2022-12-29T06:27:10;19.60;;;2.43;;
17790;SDS011;9019;48.132;-1.210;2022-12-29T06:29:38;21.33;;;3.03;;
17790;SDS011;9019;48.132;-1.210;2022-12-29T06:32:06;17.43;;;2.37;;
17790;SDS011;9019;48.132;-1.210;2022-12-29T06:34:33;23.17;;;2.70;;
17790;SDS011;9019;48.132;-1.210;2022-12-29T06:37:00;14.10;;;2.73;;
17790;SDS011;9019;48.132;-1.210;2022-12-29T06:39:28;14.07;;;2.70;;
17790;SDS011;9019;48.132;-1.210;2022-12-29T06:41:55;15.87;;;2.60;;
17790;SDS011;9019;48.132;-1.210;2022-12-29T06:44:23;18.10;;;2.67;;
17790;SDS011;9019;48.132;-1.210;2022-12-29T06:46:50;17.27;;;2.40;;
17790;SDS011;9019;48.132;-1.210;2022-12-29T06:49:18;18.30;;;3.17;;
17790;SDS011;9019;48.132;-1.210;2022-12-29T06:51:45;23.93;;;3.20;;
17790;SDS011;9019;48.132;-1.210;2022-12-29T06:54:12;20.70;;;3.13;;
17790;SDS011;9019;48.132;-1.210;2022-12-29T06:56:39;16.63;;;2.73;;
17790;SDS011;9019;48.132;-1.210;2022-12-29T06:59:07;18.50;;;3.10;;
17790;SDS011;9019;48.132;-1.210;2022-12-29T07:01:35;16.00;;;2.83;;
17790;SDS011;9019;48.132;-1.210;2022-12-29T07:04:03;15.17;;;2.63;;
17790;SDS011;9019;48.132;-1.210;2022-12-29T07:06:30;21.50;;;3.13;;
17790;SDS011;9019;48.132;-1.210;2022-12-29T07:08:57;15.13;;;2.60;;
17790;SDS011;9019;48.132;-1.210;2022-12-29T07:11:25;13.77;;;2.50;;
17790;SDS011;9019;48.132;-1.210;2022-12-29T07:13:52;20.37;;;3.30;;
17790;SDS011;9019;48.132;-1.210;2022-12-29T07:16:19;20.50;;;2.93;;
17790;SDS011;9019;48.132;-1.210;2022-12-29T07:18:47;20.27;;;3.07;;
17790;SDS011;9019;48.132;-1.210;2022-12-29T07:21:15;20.90;;;3.40;;
17790;SDS011;9019;48.132;-1.210;2022-12-29T07:23:42;15.83;;;2.83;;
17790;SDS011;9019;48.132;-1.210;2022-12-29T07:26:10;18.43;;;2.73;;
17790;SDS011;9019;48.132;-1.210;2022-12-29T07:28:38;15.43;;;2.77;;
17790;SDS011;9019;48.132;-1.210;2022-12-29T07:31:08;21.27;;;3.03;;
17790;SDS011;9019;48.132;-1.210;2022-12-29T07:33:40;19.67;;;3.23;;
17790;SDS011;9019;48.132;-1.210;2022-12-29T07:36:09;16.63;;;3.10;;
17790;SDS011;9019;48.132;-1.210;2022-12-29T07:38:36;20.77;;;3.03;;
17790;SDS011;9019;48.132;-1.210;2022-12-29T07:41:04;22.50;;;3.63;;
17790;SDS011;9019;48.132;-1.210;2022-12-29T07:43:31;19.30;;;3.20;;
17790;SDS011;9019;48.132;-1.210;2022-12-29T07:45:58;21.50;;;3.53;;
17790;SDS011;9019;48.132;-1.210;2022-12-29T07:48:25;12.27;;;2.60;;
17790;SDS011;9019;48.132;-1.210;2022-12-29T07:50:53;17.67;;;3.10;;
17790;SDS011;9019;48.132;-1.210;2022-12-29T07:53:21;20.23;;;3.07;;
17790;SDS011;9019;48.132;-1.210;2022-12-29T07:55:49;19.13;;;2.50;;
17790;SDS011;9019;48.132;-1.210;2022-12-29T07:58:16;18.33;;;2.67;;
17790;SDS011;9019;48.132;-1.210;2022-12-29T08:00:44;16.00;;;2.80;;
17790;SDS011;9019;48.132;-1.210;2022-12-29T08:03:11;22.50;;;2.87;;
17790;SDS011;9019;48.132;-1.210;2022-12-29T08:05:38;19.57;;;3.03;;
17790;SDS011;9019;48.132;-1.210;2022-12-29T08:08:05;14.87;;;2.33;;
17790;SDS011;9019;48.132;-1.210;2022-12-29T08:10:34;21.73;;;2.90;;
17790;SDS011;9019;48.132;-1.210;2022-12-29T08:13:01;22.63;;;3.03;;
17790;SDS011;9019;48.132;-1.210;2022-12-29T08:15:28;15.90;;;2.97;;
17790;SDS011;9019;48.132;-1.210;2022-12-29T08:17:55;18.57;;;2.90;;
17790;SDS011;9019;48.132;-1.210;2022-12-29T08:20:22;19.33;;;2.60;;
17790;SDS011;9019;48.132;-1.210;2022-12-29T08:22:50;18.60;;;3.37;;
17790;SDS011;9019;48.132;-1.210;2022-12-29T08:25:17;15.73;;;3.10;;
17790;SDS011;9019;48.132;-1.210;2022-12-29T08:27:46;23.27;;;3.17;;
17790;SDS011;9019;48.132;-1.210;2022-12-29T08:30:13;25.50;;;3.20;;
17790;SDS011;9019;48.132;-1.210;2022-12-29T08:32:41;19.00;;;3.37;;
17790;SDS011;9019;48.132;-1.210;2022-12-29T08:35:08;20.83;;;3.70;;
17790;SDS011;9019;48.132;-1.210;2022-12-29T08:37:35;22.83;;;3.60;;
17790;SDS011;9019;48.132;-1.210;2022-12-29T08:40:03;22.07;;;3.57;;
17790;SDS011;9019;48.132;-1.210;2022-12-29T08:42:30;17.77;;;3.00;;
17790;SDS011;9019;48.132;-1.210;2022-12-29T08:45:00;19.87;;;3.60;;
17790;SDS011;9019;48.132;-1.210;2022-12-29T08:47:27;14.10;;;2.97;;
17790;SDS011;9019;48.132;-1.210;2022-12-29T08:49:55;20.60;;;4.20;;
17790;SDS011;9019;48.132;-1.210;2022-12-29T08:52:22;19.10;;;4.17;;
17790;SDS011;9019;48.132;-1.210;2022-12-29T08:54:49;17.87;;;4.87;;
17790;SDS011;9019;48.132;-1.210;2022-12-29T08:57:16;22.70;;;6.10;;
17790;SDS011;9019;48.132;-1.210;2022-12-29T08:59:43;17.57;;;3.90;;
17790;SDS011;9019;48.132;-1.210;2022-12-29T09:02:12;18.20;;;3.53;;
17790;SDS011;9019;48.132;-1.210;2022-12-29T09:04:39;17.57;;;3.33;;
17790;SDS011;9019;48.132;-1.210;2022-12-29T09:07:07;17.40;;;3.00;;
17790;SDS011;9019;48.132;-1.210;2022-12-29T09:09:34;24.50;;;3.53;;
17790;SDS011;9019;48.132;-1.210;2022-12-29T09:12:01;17.40;;;2.83;;
17790;SDS011;9019;48.132;-1.210;2022-12-29T09:14:28;16.57;;;3.40;;
17790;SDS011;9019;48.132;-1.210;2022-12-29T09:16:55;20.33;;;3.53;;
17790;SDS011;9019;48.132;-1.210;2022-12-29T09:19:42;26.37;;;4.33;;
17790;SDS011;9019;48.132;-1.210;2022-12-29T09:22:09;20.63;;;3.83;;
17790;SDS011;9019;48.132;-1.210;2022-12-29T09:24:36;23.90;;;3.47;;
17790;SDS011;9019;48.132;-1.210;2022-12-29T09:27:03;20.70;;;3.57;;
17790;SDS011;9019;48.132;-1.210;2022-12-29T09:29:30;18.70;;;3.37;;
17790;SDS011;9019;48.132;-1.210;2022-12-29T09:31:57;17.30;;;3.40;;
17790;SDS011;9019;48.132;-1.210;2022-12-29T09:34:25;23.93;;;3.40;;
17790;SDS011;9019;48.132;-1.210;2022-12-29T09:36:53;21.37;;;3.73;;
17790;SDS011;9019;48.132;-1.210;2022-12-29T09:39:21;18.63;;;3.53;;
17790;SDS011;9019;48.132;-1.210;2022-12-29T09:41:49;19.03;;;3.47;;
17790;SDS011;9019;48.132;-1.210;2022-12-29T09:44:20;15.37;;;3.40;;
17790;SDS011;9019;48.132;-1.210;2022-12-29T09:46:50;19.33;;;3.20;;
17790;SDS011;9019;48.132;-1.210;2022-12-29T09:49:23;21.00;;;3.43;;
17790;SDS011;9019;48.132;-1.210;2022-12-29T09:51:52;11.73;;;2.67;;
17790;SDS011;9019;48.132;-1.210;2022-12-29T09:54:28;15.73;;;2.77;;
17790;SDS011;9019;48.132;-1.210;2022-12-29T09:56:57;17.93;;;3.47;;
17790;SDS011;9019;48.132;-1.210;2022-12-29T09:59:26;19.33;;;3.53;;
17790;SDS011;9019;48.132;-1.210;2022-12-29T10:01:57;15.93;;;3.10;;
17790;SDS011;9019;48.132;-1.210;2022-12-29T10:04:25;17.30;;;3.10;;
17790;SDS011;9019;48.132;-1.210;2022-12-29T10:06:54;15.73;;;3.10;;
17790;SDS011;9019;48.132;-1.210;2022-12-29T10:09:24;13.30;;;2.60;;
17790;SDS011;9019;48.132;-1.210;2022-12-29T10:11:58;16.63;;;3.07;;
17790;SDS011;9019;48.132;-1.210;2022-12-29T10:14:33;14.27;;;2.80;;
17790;SDS011;9019;48.132;-1.210;2022-12-29T10:17:05;13.73;;;2.67;;
17790;SDS011;9019;48.132;-1.210;2022-12-29T10:19:49;12.37;;;2.67;;
17790;SDS011;9019;48.132;-1.210;2022-12-29T10:22:23;14.13;;;3.60;;
17790;SDS011;9019;48.132;-1.210;2022-12-29T10:24:56;12.77;;;3.60;;
17790;SDS011;9019;48.132;-1.210;2022-12-29T10:27:25;12.67;;;2.80;;
17790;SDS011;9019;48.132;-1.210;2022-12-29T10:29:53;11.73;;;2.70;;
17790;SDS011;9019;48.132;-1.210;2022-12-29T10:32:24;9.67;;;2.80;;
17790;SDS011;9019;48.132;-1.210;2022-12-29T10:34:53;11.10;;;2.50;;
17790;SDS011;9019;48.132;-1.210;2022-12-29T10:37:24;10.23;;;2.50;;
17790;SDS011;9019;48.132;-1.210;2022-12-29T10:39:55;11.57;;;2.77;;
17790;SDS011;9019;48.132;-1.210;2022-12-29T10:42:25;14.77;;;2.83;;
17790;SDS011;9019;48.132;-1.210;2022-12-29T10:44:53;13.67;;;2.70;;
17790;SDS011;9019;48.132;-1.210;2022-12-29T10:47:21;15.17;;;2.67;;
17790;SDS011;9019;48.132;-1.210;2022-12-29T10:49:50;9.90;;;2.60;;
17790;SDS011;9019;48.132;-1.210;2022-12-29T10:52:17;11.80;;;2.50;;
17790;SDS011;9019;48.132;-1.210;2022-12-29T10:54:47;15.50;;;2.53;;
17790;SDS011;9019;48.132;-1.210;2022-12-29T10:57:18;10.93;;;2.63;;
17790;SDS011;9019;48.132;-1.210;2022-12-29T10:59:50;12.37;;;2.43;;
17790;SDS011;9019;48.132;-1.210;2022-12-29T11:02:35;13.80;;;3.07;;
17790;SDS011;9019;48.132;-1.210;2022-12-29T11:05:10;10.03;;;2.83;;
17790;SDS011;9019;48.132;-1.210;2022-12-29T11:07:40;11.57;;;2.63;;
17790;SDS011;9019;48.132;-1.210;2022-12-29T11:10:17;12.65;;;2.60;;
17790;SDS011;9019;48.132;-1.210;2022-12-29T11:12:54;15.90;;;2.87;;
17790;SDS011;9019;48.132;-1.210;2022-12-29T11:15:23;11.00;;;2.72;;
17790;SDS011;9019;48.132;-1.210;2022-12-29T11:17:51;9.20;;;2.50;;
17790;SDS011;9019;48.132;-1.210;2022-12-29T11:20:26;16.52;;;3.00;;
17790;SDS011;9019;48.132;-1.210;2022-12-29T11:22:53;10.48;;;3.35;;
17790;SDS011;9019;48.132;-1.210;2022-12-29T11:25:21;11.98;;;2.85;;
17790;SDS011;9019;48.132;-1.210;2022-12-29T11:27:54;10.15;;;2.53;;
17790;SDS011;9019;48.132;-1.210;2022-12-29T11:30:23;9.23;;;2.70;;
17790;SDS011;9019;48.132;-1.210;2022-12-29T11:32:52;14.63;;;2.60;;
17790;SDS011;9019;48.132;-1.210;2022-12-29T11:35:28;9.75;;;2.50;;
17790;SDS011;9019;48.132;-1.210;2022-12-29T11:37:56;8.90;;;2.70;;
17790;SDS011;9019;48.132;-1.210;2022-12-29T11:40:24;18.13;;;3.08;;
17790;SDS011;9019;48.132;-1.210;2022-12-29T11:42:52;11.02;;;2.45;;
17790;SDS011;9019;48.132;-1.210;2022-12-29T11:45:21;12.48;;;2.83;;
17790;SDS011;9019;48.132;-1.210;2022-12-29T11:47:52;10.98;;;3.22;;
17790;SDS011;9019;48.132;-1.210;2022-12-29T11:50:20;10.45;;;2.80;;
17790;SDS011;9019;48.132;-1.210;2022-12-29T11:52:48;9.85;;;2.53;;
17790;SDS011;9019;48.132;-1.210;2022-12-29T11:55:17;12.65;;;2.40;;
17790;SDS011;9019;48.132;-1.210;2022-12-29T11:57:45;12.32;;;2.08;;
17790;SDS011;9019;48.132;-1.210;2022-12-29T12:00:14;12.18;;;2.60;;
17790;SDS011;9019;48.132;-1.210;2022-12-29T12:02:42;15.05;;;3.05;;
17790;SDS011;9019;48.132;-1.210;2022-12-29T12:05:23;13.57;;;2.53;;
17790;SDS011;9019;48.132;-1.210;2022-12-29T12:07:54;12.43;;;2.67;;
17790;SDS011;9019;48.132;-1.210;2022-12-29T12:10:25;12.45;;;2.33;;
17790;SDS011;9019;48.132;-1.210;2022-12-29T12:13:00;19.17;;;3.17;;
17790;SDS011;9019;48.132;-1.210;2022-12-29T12:15:30;13.60;;;2.65;;
17790;SDS011;9019;48.132;-1.210;2022-12-29T12:18:00;10.88;;;2.72;;
17790;SDS011;9019;48.132;-1.210;2022-12-29T12:20:34;9.65;;;2.38;;
17790;SDS011;9019;48.132;-1.210;2022-12-29T12:23:06;11.35;;;3.10;;
17790;SDS011;9019;48.132;-1.210;2022-12-29T12:25:37;12.50;;;2.70;;
17790;SDS011;9019;48.132;-1.210;2022-12-29T12:28:08;12.93;;;2.30;;
17790;SDS011;9019;48.132;-1.210;2022-12-29T12:30:38;14.40;;;2.90;;
17790;SDS011;9019;48.132;-1.210;2022-12-29T12:33:12;9.88;;;2.28;;
17790;SDS011;9019;48.132;-1.210;2022-12-29T12:35:43;12.65;;;2.60;;
17790;SDS011;9019;48.132;-1.210;2022-12-29T12:38:14;12.68;;;2.35;;
17790;SDS011;9019;48.132;-1.210;2022-12-29T12:40:47;11.07;;;2.30;;
17790;SDS011;9019;48.132;-1.210;2022-12-29T12:43:23;10.90;;;2.42;;
17790;SDS011;9019;48.132;-1.210;2022-12-29T12:45:59;15.13;;;3.17;;
17790;SDS011;9019;48.132;-1.210;2022-12-29T12:48:37;9.82;;;2.53;;
17790;SDS011;9019;48.132;-1.210;2022-12-29T12:51:11;14.02;;;2.97;;
17790;SDS011;9019;48.132;-1.210;2022-12-29T12:53:45;12.88;;;2.67;;
17790;SDS011;9019;48.132;-1.210;2022-12-29T12:56:20;12.05;;;3.05;;
17790;SDS011;9019;48.132;-1.210;2022-12-29T12:58:51;15.32;;;2.85;;
17790;SDS011;9019;48.132;-1.210;2022-12-29T13:01:25;10.70;;;2.53;;
17790;SDS011;9019;48.132;-1.210;2022-12-29T13:04:01;12.13;;;2.45;;
17790;SDS011;9019;48.132;-1.210;2022-12-29T13:06:34;12.07;;;2.78;;
17790;SDS011;9019;48.132;-1.210;2022-12-29T13:09:13;15.32;;;2.60;;
17790;SDS011;9019;48.132;-1.210;2022-12-29T13:11:49;13.63;;;2.80;;
17790;SDS011;9019;48.132;-1.210;2022-12-29T13:14:22;14.48;;;2.83;;
17790;SDS011;9019;48.132;-1.210;2022-12-29T13:16:53;13.55;;;2.60;;
17790;SDS011;9019;48.132;-1.210;2022-12-29T13:19:23;13.13;;;2.50;;
17790;SDS011;9019;48.132;-1.210;2022-12-29T13:22:00;15.50;;;2.45;;
17790;SDS011;9019;48.132;-1.210;2022-12-29T13:24:30;13.77;;;2.53;;
17790;SDS011;9019;48.132;-1.210;2022-12-29T13:27:00;16.77;;;2.77;;
17790;SDS011;9019;48.132;-1.210;2022-12-29T13:29:31;12.60;;;3.17;;
17790;SDS011;9019;48.132;-1.210;2022-12-29T13:32:02;11.40;;;2.73;;
17790;SDS011;9019;48.132;-1.210;2022-12-29T13:34:36;12.18;;;2.60;;
17790;SDS011;9019;48.132;-1.210;2022-12-29T13:37:08;18.70;;;3.05;;
17790;SDS011;9019;48.132;-1.210;2022-12-29T13:39:37;14.23;;;2.77;;
17790;SDS011;9019;48.132;-1.210;2022-12-29T13:42:06;13.70;;;3.17;;
17790;SDS011;9019;48.132;-1.210;2022-12-29T13:44:34;12.57;;;2.77;;
17790;SDS011;9019;48.132;-1.210;2022-12-29T13:47:02;18.07;;;3.53;;
17790;SDS011;9019;48.132;-1.210;2022-12-29T13:49:32;14.43;;;2.77;;
17790;SDS011;9019;48.132;-1.210;2022-12-29T13:52:03;14.47;;;2.70;;
17790;SDS011;9019;48.132;-1.210;2022-12-29T13:54:37;12.70;;;3.00;;
17790;SDS011;9019;48.132;-1.210;2022-12-29T13:57:08;13.20;;;2.93;;
17790;SDS011;9019;48.132;-1.210;2022-12-29T13:59:38;15.00;;;2.63;;
17790;SDS011;9019;48.132;-1.210;2022-12-29T14:02:10;16.73;;;3.00;;
17790;SDS011;9019;48.132;-1.210;2022-12-29T14:04:41;12.77;;;2.50;;
17790;SDS011;9019;48.132;-1.210;2022-12-29T14:07:21;16.03;;;3.77;;
17790;SDS011;9019;48.132;-1.210;2022-12-29T14:09:50;13.87;;;2.70;;
17790;SDS011;9019;48.132;-1.210;2022-12-29T14:12:19;11.10;;;2.13;;
17790;SDS011;9019;48.132;-1.210;2022-12-29T14:14:46;9.50;;;2.00;;
17790;SDS011;9019;48.132;-1.210;2022-12-29T14:17:16;7.50;;;1.43;;
17790;SDS011;9019;48.132;-1.210;2022-12-29T14:19:45;7.30;;;0.90;;
17790;SDS011;9019;48.132;-1.210;2022-12-29T14:22:12;3.77;;;0.90;;
17790;SDS011;9019;48.132;-1.210;2022-12-29T14:24:40;3.37;;;0.90;;
17790;SDS011;9019;48.132;-1.210;2022-12-29T14:29:55;4.17;;;1.00;;
17790;SDS011;9019;48.132;-1.210;2022-12-29T14:32:37;3.20;;;1.00;;
17790;SDS011;9019;48.132;-1.210;2022-12-29T14:37:50;5.17;;;1.37;;
17790;SDS011;9019;48.132;-1.210;2022-12-29T14:40:31;5.30;;;1.27;;
17790;SDS011;9019;48.132;-1.210;2022-12-29T14:42:59;6.07;;;1.20;;
17790;SDS011;9019;48.132;-1.210;2022-12-29T14:45:28;6.37;;;1.30;;
17790;SDS011;9019;48.132;-1.210;2022-12-29T14:47:57;4.60;;;1.40;;
17790;SDS011;9019;48.132;-1.210;2022-12-29T14:50:33;7.13;;;1.13;;
17790;SDS011;9019;48.132;-1.210;2022-12-29T14:53:03;5.00;;;1.23;;
17790;SDS011;9019;48.132;-1.210;2022-12-29T14:55:38;6.40;;;1.67;;
17790;SDS011;9019;48.132;-1.210;2022-12-29T14:58:06;5.57;;;1.40;;
17790;SDS011;9019;48.132;-1.210;2022-12-29T15:00:35;5.23;;;1.50;;